createdAt,value
2018-10-21T00:01:46.002Z,9.41
2018-10-21T00:04:14.894Z,9.33
2018-10-21T00:06:43.708Z,9.29
2018-10-21T00:09:13.028Z,9.24
2018-10-21T00:11:42.260Z,9.21
2018-10-21T00:14:11.053Z,9.23
2018-10-21T00:16:39.868Z,9.18
2018-10-21T00:19:08.970Z,9.09
2018-10-21T00:21:37.925Z,9.07
2018-10-21T00:24:06.771Z,9.03
2018-10-21T00:26:35.599Z,9.15
2018-10-21T00:29:04.880Z,9.18
2018-10-21T00:31:33.655Z,9.16
2018-10-21T00:34:02.609Z,9.17
2018-10-21T00:36:31.381Z,9.22
2018-10-21T00:39:00.266Z,9.23
2018-10-21T00:41:29.244Z,9.17
2018-10-21T00:43:58.031Z,9.20
2018-10-21T00:46:26.890Z,9.21
2018-10-21T00:48:55.768Z,9.15
2018-10-21T00:51:24.571Z,9.18
2018-10-21T00:53:53.592Z,9.12
2018-10-21T00:56:22.608Z,9.08
2018-10-21T00:58:51.472Z,9.04
2018-10-21T01:01:20.305Z,9.02
2018-10-21T01:03:49.182Z,8.99
2018-10-21T01:06:18.120Z,8.98
2018-10-21T01:08:46.912Z,8.96
2018-10-21T01:11:15.920Z,8.89
2018-10-21T01:13:44.699Z,8.81
2018-10-21T01:16:13.789Z,8.82
2018-10-21T01:18:42.684Z,8.82
2018-10-21T01:21:11.567Z,8.83
2018-10-21T01:23:40.536Z,8.87
2018-10-21T01:26:09.404Z,8.93
2018-10-21T01:28:38.451Z,8.96
2018-10-21T01:31:07.297Z,9.00
2018-10-21T01:33:36.163Z,9.04
2018-10-21T01:36:05.331Z,9.13
2018-10-21T01:38:34.116Z,9.13
2018-10-21T01:41:02.963Z,9.13
2018-10-21T01:43:32.714Z,9.17
2018-10-21T01:46:02.418Z,9.15
2018-10-21T01:48:32.439Z,9.15
2018-10-21T01:51:01.432Z,9.16
2018-10-21T01:53:30.256Z,9.21
2018-10-21T01:55:59.649Z,9.21
2018-10-21T01:58:28.456Z,9.19
2018-10-21T02:00:57.581Z,9.07
2018-10-21T02:03:26.504Z,9.13
2018-10-21T02:05:55.280Z,9.15
2018-10-21T02:08:24.069Z,9.12
2018-10-21T02:10:53.163Z,9.07
2018-10-21T02:13:22.020Z,9.00
2018-10-21T02:15:50.825Z,8.96
2018-10-21T02:18:20.123Z,9.03
2018-10-21T02:20:48.952Z,9.05
2018-10-21T02:23:17.775Z,9.01
2018-10-21T02:25:46.751Z,9.01
2018-10-21T02:28:15.533Z,9.01
2018-10-21T02:30:44.301Z,9.02
2018-10-21T02:33:13.261Z,9.02
2018-10-21T02:35:42.022Z,9.03
2018-10-21T02:38:11.180Z,9.03
2018-10-21T02:41:54.128Z,9.07
2018-10-21T02:44:23.338Z,9.07
2018-10-21T02:46:53.563Z,9.08
2018-10-21T02:49:22.759Z,9.20
2018-10-21T02:51:57.148Z,9.23
2018-10-21T02:54:27.397Z,9.33
2018-10-21T02:56:56.487Z,9.33
2018-10-21T02:59:25.599Z,9.37
2018-10-21T03:01:55.919Z,9.41
2018-10-21T03:04:24.865Z,9.44
2018-10-21T03:06:53.639Z,9.42
2018-10-21T03:09:22.934Z,9.48
2018-10-21T03:11:51.746Z,9.64
2018-10-21T03:14:20.544Z,9.65
2018-10-21T03:16:49.440Z,9.68
2018-10-21T03:19:18.260Z,9.67
2018-10-21T03:21:47.178Z,9.68
2018-10-21T03:24:16.072Z,9.74
2018-10-21T03:26:46.099Z,9.81
2018-10-21T03:29:14.881Z,9.80
2018-10-21T03:31:43.713Z,9.75
2018-10-21T03:34:12.508Z,9.77
2018-10-21T03:36:41.371Z,9.73
2018-10-21T03:39:10.728Z,9.71
2018-10-21T03:41:39.543Z,9.65
2018-10-21T03:44:08.301Z,9.66
2018-10-21T03:46:37.830Z,9.65
2018-10-21T03:49:06.689Z,9.66
2018-10-21T03:51:35.495Z,9.61
2018-10-21T03:54:04.859Z,9.61
2018-10-21T03:56:33.642Z,9.61
2018-10-21T03:59:02.576Z,9.61
2018-10-21T04:01:31.450Z,9.63
2018-10-21T04:04:00.318Z,9.62
2018-10-21T04:06:29.473Z,9.63
2018-10-21T04:08:58.345Z,9.66
2018-10-21T04:11:27.411Z,9.64
2018-10-21T04:13:56.253Z,9.65
2018-10-21T04:16:25.473Z,9.62
2018-10-21T04:18:54.497Z,9.55
2018-10-21T04:21:23.321Z,9.65
2018-10-21T04:23:52.517Z,9.65
2018-10-21T04:26:21.458Z,9.56
2018-10-21T04:28:50.257Z,9.54
2018-10-21T04:31:19.124Z,9.58
2018-10-21T04:33:48.026Z,9.58
2018-10-21T04:36:33.543Z,9.60
2018-10-21T04:39:25.152Z,9.61
2018-10-21T04:41:54.017Z,9.60
2018-10-21T04:44:22.829Z,9.62
2018-10-21T04:46:51.762Z,9.60
2018-10-21T04:49:20.605Z,9.62
2018-10-21T04:51:49.377Z,9.66
2018-10-21T04:54:18.159Z,9.63
2018-10-21T04:56:46.984Z,9.65
2018-10-21T04:59:15.896Z,9.64
2018-10-21T05:01:44.777Z,9.55
2018-10-21T05:04:13.635Z,9.54
2018-10-21T05:06:42.396Z,9.59
2018-10-21T05:09:11.182Z,9.59
2018-10-21T05:11:40.333Z,9.51
2018-10-21T05:14:09.272Z,9.51
2018-10-21T05:16:38.100Z,9.49
2018-10-21T05:19:07.204Z,9.45
2018-10-21T05:21:36.008Z,9.45
2018-10-21T05:24:05.281Z,9.40
2018-10-21T05:26:34.186Z,9.54
2018-10-21T05:29:02.984Z,9.63
2018-10-21T05:31:31.837Z,9.66
2018-10-21T05:34:00.723Z,9.63
2018-10-21T05:36:29.496Z,9.52
2018-10-21T05:38:58.395Z,9.59
2018-10-21T05:41:27.233Z,9.55
2018-10-21T05:43:56.025Z,9.58
2018-10-21T05:46:40.449Z,9.55
2018-10-21T05:49:09.390Z,9.46
2018-10-21T05:51:39.172Z,9.46
2018-10-21T05:54:09.611Z,9.46
2018-10-21T05:56:39.544Z,9.47
2018-10-21T05:59:08.376Z,9.46
2018-10-21T06:01:38.119Z,9.49
2018-10-21T06:04:07.705Z,9.53
2018-10-21T06:06:36.531Z,9.57
2018-10-21T06:09:07.560Z,9.70
2018-10-21T06:11:36.504Z,9.72
2018-10-21T06:14:05.866Z,9.63
2018-10-21T06:16:40.743Z,9.67
2018-10-21T06:19:12.461Z,9.87
2018-10-21T06:21:42.541Z,9.97
2018-10-21T06:24:11.354Z,10.00
2018-10-21T06:26:40.204Z,10.04
2018-10-21T06:29:09.088Z,10.07
2018-10-21T06:31:37.917Z,10.04
2018-10-21T06:34:06.931Z,9.96
2018-10-21T06:36:35.958Z,9.89
2018-10-21T06:39:05.699Z,9.89
2018-10-21T06:41:34.506Z,9.93
2018-10-21T06:44:03.538Z,10.03
2018-10-21T06:46:32.415Z,10.00
2018-10-21T06:49:01.557Z,10.22
2018-10-21T06:51:30.636Z,10.33
2018-10-21T06:53:59.446Z,10.39
2018-10-21T06:56:28.420Z,10.38
2018-10-21T06:58:58.203Z,10.42
2018-10-21T07:01:27.866Z,10.59
2018-10-21T07:03:56.839Z,10.65
2018-10-21T07:06:26.800Z,10.62
2018-10-21T07:08:56.882Z,10.69
2018-10-21T07:11:25.774Z,10.90
2018-10-21T07:13:54.586Z,10.85
2018-10-21T07:16:23.563Z,10.87
2018-10-21T07:18:52.875Z,10.87
2018-10-21T07:21:21.703Z,10.99
2018-10-21T07:23:50.980Z,10.97
2018-10-21T07:26:19.896Z,11.06
2018-10-21T07:28:48.699Z,11.19
2018-10-21T07:31:17.611Z,11.15
2018-10-21T07:33:46.359Z,11.13
2018-10-21T07:36:15.229Z,11.17
2018-10-21T07:38:44.084Z,11.29
2018-10-21T07:41:12.917Z,11.30
2018-10-21T07:43:41.763Z,11.33
2018-10-21T07:46:10.907Z,11.37
2018-10-21T07:48:39.806Z,11.33
2018-10-21T07:51:08.836Z,11.41
2018-10-21T07:53:37.697Z,11.66
2018-10-21T07:56:06.874Z,11.64
2018-10-21T07:58:35.752Z,11.61
2018-10-21T08:01:05.020Z,11.68
2018-10-21T08:03:33.823Z,11.98
2018-10-21T08:06:31.901Z,11.79
2018-10-21T08:09:00.761Z,11.81
2018-10-21T08:11:29.656Z,11.94
2018-10-21T08:13:58.514Z,11.88
2018-10-21T08:16:27.334Z,12.14
2018-10-21T08:18:56.197Z,12.40
2018-10-21T08:21:25.077Z,12.25
2018-10-21T08:23:53.995Z,12.42
2018-10-21T08:26:23.183Z,12.46
2018-10-21T08:28:52.071Z,12.48
2018-10-21T08:31:20.831Z,12.55
2018-10-21T08:33:49.891Z,12.64
2018-10-21T08:36:18.769Z,12.40
2018-10-21T08:38:47.568Z,12.54
2018-10-21T08:41:16.397Z,12.64
2018-10-21T08:43:45.251Z,12.57
2018-10-21T08:46:14.138Z,12.58
2018-10-21T08:48:42.981Z,12.66
2018-10-21T08:51:11.867Z,12.78
2018-10-21T08:53:40.749Z,12.79
2018-10-21T08:56:09.640Z,12.79
2018-10-21T08:58:38.631Z,12.88
2018-10-21T09:01:07.760Z,12.81
2018-10-21T09:03:36.862Z,13.01
2018-10-21T09:06:05.758Z,13.14
2018-10-21T09:08:34.533Z,13.35
2018-10-21T09:11:03.481Z,13.29
2018-10-21T09:13:32.361Z,13.26
2018-10-21T09:16:01.272Z,13.18
2018-10-21T09:18:30.065Z,13.39
2018-10-21T09:20:58.952Z,13.41
2018-10-21T09:23:27.773Z,13.55
2018-10-21T09:25:56.715Z,13.55
2018-10-21T09:28:25.532Z,13.47
2018-10-21T09:30:54.401Z,13.57
2018-10-21T09:33:23.242Z,13.64
2018-10-21T09:35:52.110Z,13.54
2018-10-21T09:38:20.973Z,13.79
2018-10-21T09:40:49.792Z,13.82
2018-10-21T09:43:18.691Z,13.58
2018-10-21T09:45:47.575Z,13.63
2018-10-21T09:48:16.433Z,13.56
2018-10-21T09:50:45.333Z,13.62
2018-10-21T09:53:14.168Z,13.80
2018-10-21T09:55:43.140Z,13.98
2018-10-21T09:58:12.104Z,13.91
2018-10-21T10:00:46.390Z,13.97
2018-10-21T10:03:15.359Z,14.11
2018-10-21T10:05:44.242Z,14.13
2018-10-21T10:08:13.092Z,14.18
2018-10-21T10:10:42.143Z,14.11
2018-10-21T10:13:11.081Z,13.53
2018-10-21T10:15:39.950Z,13.95
2018-10-21T10:18:08.780Z,14.05
2018-10-21T10:20:37.607Z,14.31
2018-10-21T10:23:06.552Z,14.05
2018-10-21T10:25:35.347Z,14.11
2018-10-21T10:28:04.338Z,14.33
2018-10-21T10:30:33.165Z,14.25
2018-10-21T10:33:01.928Z,14.38
2018-10-21T10:35:30.748Z,14.36
2018-10-21T10:37:59.637Z,14.44
2018-10-21T10:40:28.651Z,14.31
2018-10-21T10:42:57.459Z,14.39
2018-10-21T10:45:26.269Z,14.43
2018-10-21T10:47:55.059Z,14.55
2018-10-21T10:50:29.955Z,14.72
2018-10-21T10:52:58.908Z,14.57
2018-10-21T10:55:33.355Z,14.76
2018-10-21T10:58:02.345Z,14.85
2018-10-21T11:00:31.176Z,14.75
2018-10-21T11:03:00.971Z,14.87
2018-10-21T11:05:30.486Z,15.01
2018-10-21T11:07:59.810Z,14.91
2018-10-21T11:10:28.693Z,14.95
2018-10-21T11:12:57.600Z,14.93
2018-10-21T11:15:26.476Z,14.72
2018-10-21T11:17:55.297Z,14.78
2018-10-21T11:20:24.512Z,14.77
2018-10-21T11:22:53.376Z,15.00
2018-10-21T11:25:22.153Z,15.13
2018-10-21T11:27:51.533Z,15.24
2018-10-21T11:30:20.398Z,15.12
2018-10-21T11:32:49.264Z,15.17
2018-10-21T11:35:18.211Z,15.21
2018-10-21T11:37:47.083Z,15.40
2018-10-21T11:40:15.917Z,15.32
2018-10-21T11:42:44.818Z,15.23
2018-10-21T11:45:13.778Z,15.31
2018-10-21T11:47:42.585Z,15.42
2018-10-21T11:50:11.894Z,15.56
2018-10-21T11:52:40.812Z,15.65
2018-10-21T11:55:10.444Z,15.62
2018-10-21T11:57:39.284Z,15.62
2018-10-21T12:00:09.624Z,15.59
2018-10-21T12:02:38.533Z,15.65
2018-10-21T12:05:07.975Z,15.84
2018-10-21T12:07:36.804Z,15.92
2018-10-21T12:10:06.460Z,15.79
2018-10-21T12:12:35.599Z,15.94
2018-10-21T12:15:04.808Z,15.95
2018-10-21T12:17:33.670Z,15.88
2018-10-21T12:20:02.607Z,15.49
2018-10-21T12:22:31.382Z,15.44
2018-10-21T12:25:00.337Z,15.54
2018-10-21T12:27:29.231Z,15.61
2018-10-21T12:29:58.081Z,15.86
2018-10-21T12:32:26.909Z,15.86
2018-10-21T12:34:56.265Z,15.79
2018-10-21T12:37:25.341Z,15.92
2018-10-21T12:39:54.161Z,16.00
2018-10-21T12:42:23.132Z,15.98
2018-10-21T12:44:51.949Z,15.92
2018-10-21T12:47:20.848Z,15.90
2018-10-21T12:49:49.718Z,15.89
2018-10-21T12:52:18.803Z,15.89
2018-10-21T12:54:47.676Z,15.91
2018-10-21T12:57:16.995Z,15.99
2018-10-21T12:59:45.778Z,16.06
2018-10-21T13:02:14.629Z,16.20
2018-10-21T13:04:43.493Z,16.26
2018-10-21T13:07:12.462Z,16.35
2018-10-21T13:09:41.339Z,16.41
2018-10-21T13:12:10.264Z,16.48
2018-10-21T13:14:39.076Z,16.29
2018-10-21T13:17:14.347Z,16.07
2018-10-21T13:19:43.281Z,16.29
2018-10-21T13:22:12.234Z,16.16
2018-10-21T13:24:41.441Z,16.02
2018-10-21T13:27:10.665Z,15.84
2018-10-21T13:29:39.489Z,16.02
2018-10-21T13:32:08.476Z,16.03
2018-10-21T13:34:37.386Z,16.04
2018-10-21T13:37:06.242Z,16.26
2018-10-21T13:39:35.124Z,16.30
2018-10-21T13:42:04.460Z,15.78
2018-10-21T13:44:33.376Z,15.91
2018-10-21T13:47:02.493Z,16.05
2018-10-21T13:49:32.523Z,15.86
2018-10-21T13:52:03.818Z,15.88
2018-10-21T13:54:33.588Z,16.01
2018-10-21T13:57:02.733Z,16.13
2018-10-21T13:59:31.665Z,16.04
2018-10-21T14:02:00.623Z,16.06
2018-10-21T14:04:29.428Z,15.83
2018-10-21T14:06:58.360Z,15.94
2018-10-21T14:09:27.178Z,16.03
2018-10-21T14:11:55.976Z,15.82
2018-10-21T14:14:24.913Z,15.86
2018-10-21T14:16:53.701Z,15.73
2018-10-21T14:19:22.499Z,15.81
2018-10-21T14:21:51.492Z,15.76
2018-10-21T14:24:20.321Z,15.73
2018-10-21T14:26:49.100Z,15.84
2018-10-21T14:29:18.226Z,15.77
2018-10-21T14:31:47.037Z,15.80
2018-10-21T14:34:16.096Z,15.78
2018-10-21T14:36:45.259Z,15.90
2018-10-21T14:39:14.172Z,15.91
2018-10-21T14:41:43.046Z,15.89
2018-10-21T14:44:12.266Z,15.85
2018-10-21T14:46:41.173Z,15.86
2018-10-21T14:49:11.232Z,15.78
2018-10-21T14:51:40.156Z,15.73
2018-10-21T14:54:09.040Z,15.76
2018-10-21T14:56:37.936Z,15.71
2018-10-21T14:59:06.905Z,15.37
2018-10-21T15:01:35.822Z,15.47
2018-10-21T15:04:05.013Z,15.56
2018-10-21T15:06:33.873Z,15.51
2018-10-21T15:09:04.111Z,15.47
2018-10-21T15:11:33.434Z,15.22
2018-10-21T15:14:02.475Z,15.38
2018-10-21T15:16:31.505Z,15.39
2018-10-21T15:19:00.315Z,15.40
2018-10-21T15:21:29.601Z,15.28
2018-10-21T15:23:58.494Z,15.20
2018-10-21T15:26:27.346Z,15.27
2018-10-21T15:28:56.214Z,15.33
2018-10-21T15:31:25.047Z,15.18
2018-10-21T15:33:53.943Z,15.06
2018-10-21T15:36:22.865Z,15.11
2018-10-21T15:38:51.675Z,15.19
2018-10-21T15:41:20.495Z,15.16
2018-10-21T15:43:49.820Z,14.97
2018-10-21T15:46:18.740Z,14.87
2018-10-21T15:48:47.821Z,15.01
2018-10-21T15:51:16.635Z,15.03
2018-10-21T15:53:45.506Z,14.83
2018-10-21T15:56:14.416Z,14.90
2018-10-21T15:58:43.432Z,14.88
2018-10-21T16:01:12.379Z,14.78
2018-10-21T16:03:41.207Z,14.85
2018-10-21T16:06:10.398Z,14.69
2018-10-21T16:08:39.230Z,14.72
2018-10-21T16:11:08.244Z,14.65
2018-10-21T16:13:37.286Z,14.74
2018-10-21T16:16:06.486Z,14.69
2018-10-21T16:18:35.368Z,14.56
2018-10-21T16:21:04.298Z,14.44
2018-10-21T16:23:33.107Z,14.46
2018-10-21T16:26:02.105Z,14.62
2018-10-21T16:28:31.252Z,14.56
2018-10-21T16:31:00.629Z,14.42
2018-10-21T16:33:29.489Z,14.47
2018-10-21T16:35:58.381Z,14.43
2018-10-21T16:38:27.557Z,14.49
2018-10-21T16:40:56.861Z,14.47
2018-10-21T16:43:25.802Z,14.45
2018-10-21T16:45:54.567Z,14.41
2018-10-21T16:48:23.372Z,14.42
2018-10-21T16:50:52.348Z,14.33
2018-10-21T16:53:21.214Z,14.43
2018-10-21T16:55:50.001Z,14.34
2018-10-21T16:58:18.845Z,14.36
2018-10-21T17:00:47.981Z,14.44
2018-10-21T17:03:16.891Z,14.28
2018-10-21T17:05:45.966Z,14.38
2018-10-21T17:08:14.854Z,14.31
2018-10-21T17:10:44.059Z,14.41
2018-10-21T17:13:12.787Z,14.37
2018-10-21T17:15:41.713Z,14.18
2018-10-21T17:18:10.535Z,14.18
2018-10-21T17:20:39.408Z,14.27
2018-10-21T17:23:08.607Z,14.24
2018-10-21T17:25:37.381Z,13.96
2018-10-21T17:28:06.649Z,14.04
2018-10-21T17:30:35.807Z,13.88
2018-10-21T17:33:04.669Z,13.78
2018-10-21T17:35:33.900Z,13.64
2018-10-21T17:38:02.747Z,13.59
2018-10-21T17:40:31.678Z,13.61
2018-10-21T17:43:00.569Z,13.46
2018-10-21T17:45:29.440Z,13.40
2018-10-21T17:47:58.280Z,13.23
2018-10-21T17:50:27.164Z,13.13
2018-10-21T17:52:56.115Z,13.04
2018-10-21T17:55:24.952Z,12.96
2018-10-21T17:57:53.801Z,12.89
2018-10-21T18:00:22.686Z,12.82
2018-10-21T18:02:51.660Z,12.72
2018-10-21T18:05:20.758Z,12.65
2018-10-21T18:07:49.624Z,12.59
2018-10-21T18:10:18.521Z,12.52
2018-10-21T18:12:47.402Z,12.45
2018-10-21T18:15:16.190Z,12.28
2018-10-21T18:17:45.111Z,12.13
2018-10-21T18:20:14.048Z,12.07
2018-10-21T18:22:42.888Z,12.13
2018-10-21T18:25:11.753Z,12.14
2018-10-21T18:27:41.023Z,12.11
2018-10-21T18:30:11.178Z,12.13
2018-10-21T18:32:40.075Z,12.15
2018-10-21T18:35:11.361Z,12.16
2018-10-21T18:37:40.186Z,12.08
2018-10-21T18:40:09.916Z,12.10
2018-10-21T18:42:39.551Z,12.04
2018-10-21T18:45:11.739Z,12.02
2018-10-21T18:47:40.891Z,12.07
2018-10-21T18:50:12.556Z,12.10
2018-10-21T18:52:41.578Z,12.18
2018-10-21T18:55:11.441Z,12.20
2018-10-21T18:57:40.393Z,12.19
2018-10-21T19:00:13.719Z,12.27
2018-10-21T19:02:42.731Z,12.33
2018-10-21T19:05:12.380Z,12.34
2018-10-21T19:07:41.298Z,12.34
2018-10-21T19:10:12.128Z,12.34
2018-10-21T19:12:41.142Z,12.34
2018-10-21T19:15:11.364Z,12.40
2018-10-21T19:17:40.592Z,12.47
2018-10-21T19:20:12.413Z,12.54
2018-10-21T19:22:41.406Z,12.56
2018-10-21T19:25:11.755Z,12.51
2018-10-21T19:27:40.793Z,12.59
2018-10-21T19:30:11.287Z,12.45
2018-10-21T19:32:40.907Z,12.36
2018-10-21T19:35:11.134Z,12.27
2018-10-21T19:37:40.221Z,12.26
2018-10-21T19:40:11.027Z,12.25
2018-10-21T19:42:40.149Z,12.23
2018-10-21T19:45:10.567Z,12.21
2018-10-21T19:47:39.887Z,12.21
2018-10-21T19:50:10.776Z,12.20
2018-10-21T19:52:40.571Z,12.20
2018-10-21T19:55:09.675Z,12.19
2018-10-21T19:57:38.567Z,12.20
2018-10-21T20:00:11.881Z,12.22
2018-10-21T20:02:40.925Z,12.23
2018-10-21T20:05:10.089Z,12.24
2018-10-21T20:07:39.068Z,12.24
2018-10-21T20:10:10.849Z,12.24
2018-10-21T20:12:39.678Z,12.26
2018-10-21T20:15:09.753Z,12.31
2018-10-21T20:17:38.947Z,12.32
2018-10-21T20:20:08.932Z,12.36
2018-10-21T20:22:37.783Z,12.38
2018-10-21T20:25:08.217Z,12.44
2018-10-21T20:27:37.122Z,12.42
2018-10-21T20:30:08.095Z,12.40
2018-10-21T20:32:37.223Z,12.43
2018-10-21T20:35:07.716Z,12.43
2018-10-21T20:37:36.982Z,12.54
2018-10-21T20:40:07.244Z,12.50
2018-10-21T20:42:36.106Z,12.50
2018-10-21T20:45:07.096Z,12.52
2018-10-21T20:47:35.954Z,12.50
2018-10-21T20:50:05.101Z,12.50
2018-10-21T20:52:34.045Z,12.60
2018-10-21T20:55:02.960Z,12.65
2018-10-21T20:57:31.819Z,12.72
2018-10-21T21:00:00.690Z,12.77
2018-10-21T21:02:29.545Z,12.81
2018-10-21T21:04:58.670Z,12.74
2018-10-21T21:07:27.615Z,12.77
2018-10-21T21:09:56.705Z,12.90
2018-10-21T21:12:25.510Z,12.81
2018-10-21T21:14:54.377Z,12.58
2018-10-21T21:17:23.661Z,12.63
2018-10-21T21:19:52.518Z,12.79
2018-10-21T21:22:21.380Z,12.70
2018-10-21T21:24:50.220Z,12.65
2018-10-21T21:27:19.363Z,12.63
2018-10-21T21:29:48.251Z,12.62
2018-10-21T21:32:17.097Z,12.62
2018-10-21T21:34:45.968Z,12.73
2018-10-21T21:37:14.818Z,12.90
2018-10-21T21:39:43.676Z,12.97
2018-10-21T21:42:12.676Z,12.94
2018-10-21T21:44:41.477Z,12.78
2018-10-21T21:47:10.330Z,12.88
2018-10-21T21:49:39.552Z,12.98
2018-10-21T21:52:08.487Z,13.04
2018-10-21T21:54:37.393Z,12.99
2018-10-21T21:57:06.581Z,12.94
2018-10-21T21:59:35.449Z,12.97
2018-10-21T22:02:04.629Z,13.03
2018-10-21T22:04:33.563Z,13.06
2018-10-21T22:07:02.434Z,13.00
2018-10-21T22:09:31.274Z,13.14
2018-10-21T22:12:00.369Z,13.15
2018-10-21T22:14:29.214Z,13.06
2018-10-21T22:16:58.070Z,13.15
2018-10-21T22:19:27.025Z,13.04
2018-10-21T22:21:55.879Z,12.99
2018-10-21T22:24:24.742Z,13.01
2018-10-21T22:26:53.628Z,13.06
2018-10-21T22:29:22.474Z,13.08
2018-10-21T22:31:51.409Z,13.15
2018-10-21T22:34:20.273Z,13.00
2018-10-21T22:36:49.103Z,13.04
2018-10-21T22:39:17.964Z,13.04
2018-10-21T22:41:47.214Z,13.04
2018-10-21T22:44:16.085Z,13.13
2018-10-21T22:46:44.957Z,13.13
2018-10-21T22:49:14.277Z,13.14
2018-10-21T22:51:43.105Z,13.28
2018-10-21T22:54:12.289Z,13.20
2018-10-21T22:56:41.309Z,13.26
2018-10-21T22:59:10.182Z,13.14
2018-10-21T23:01:38.984Z,13.18
2018-10-21T23:04:07.916Z,13.17
2018-10-21T23:06:36.738Z,13.11
2018-10-21T23:09:09.080Z,13.05
2018-10-21T23:11:37.934Z,13.24
2018-10-21T23:14:06.913Z,13.28
2018-10-21T23:16:36.150Z,13.32
2018-10-21T23:19:21.926Z,13.23
2018-10-21T23:21:51.004Z,13.23
2018-10-21T23:24:19.985Z,13.33
2018-10-21T23:26:48.730Z,13.35
2018-10-21T23:29:17.588Z,13.33
2018-10-21T23:31:46.380Z,13.28
2018-10-21T23:34:15.277Z,13.44
2018-10-21T23:36:44.129Z,13.22
2018-10-21T23:39:12.975Z,13.13
2018-10-21T23:41:41.798Z,13.14
2018-10-21T23:44:10.733Z,13.19
2018-10-21T23:46:39.674Z,13.13
2018-10-21T23:49:08.513Z,13.21
2018-10-21T23:51:37.447Z,13.28
2018-10-21T23:54:06.395Z,13.19
2018-10-21T23:56:35.245Z,13.08
2018-10-21T23:59:04.906Z,13.02
